Time;durP1;ratioP1;P1;durP2;ratioP2;P2;SDS_P1;SDS_P2;PMS_P1;PMS_P2;Temp;Humidity;BMP_temperature;BMP_pressure;BME280_temperature;BME280_humidity;BME280_pressure;Samples;Min_cycle;Max_cycle;Signal;HPM_P1;HPM_P2
2023/04/04 00:01:02;;;;;;;23.70;13.55;;;;;;;9.05;78.65;99131.59;7341699;19;20031;-70
2023/04/04 00:03:27;;;;;;;19.52;13.50;;;;;;;9.04;78.60;99139.69;7345756;19;20014;-70
2023/04/04 00:05:51;;;;;;;18.63;13.50;;;;;;;9.02;78.63;99131.00;7343527;19;20011;-70
2023/04/04 00:08:16;;;;;;;18.45;13.25;;;;;;;9.03;78.45;99137.97;7341404;19;20018;-72
2023/04/04 00:10:45;;;;;;;20.33;13.07;;;;;;;9.02;78.48;99137.16;7341347;19;20013;-71
2023/04/04 00:13:10;;;;;;;22.73;14.50;;;;;;;9.00;78.54;99139.09;7342760;19;20022;-71
2023/04/04 00:15:35;;;;;;;21.23;12.57;;;;;;;8.99;78.36;99133.88;7344532;19;20098;-69
2023/04/04 00:18:02;;;;;;;26.92;13.23;;;;;;;8.97;78.29;99138.44;7342920;19;20019;-72
2023/04/04 00:20:29;;;;;;;19.23;13.25;;;;;;;8.96;78.50;99139.41;7343534;19;20014;-72
2023/04/04 00:22:54;;;;;;;18.65;12.88;;;;;;;8.90;78.51;99126.56;7346575;19;20061;-73
2023/04/04 00:25:18;;;;;;;17.88;12.80;;;;;;;8.88;78.49;99128.50;7342897;19;20015;-72
2023/04/04 00:27:45;;;;;;;21.00;13.85;;;;;;;8.88;78.53;99133.81;7342836;19;20481;-70
2023/04/04 00:30:12;;;;;;;20.30;13.20;;;;;;;8.86;78.80;99131.25;7341734;19;20023;-73
2023/04/04 00:32:42;;;;;;;21.00;14.25;;;;;;;8.82;78.94;99135.09;7345461;19;20010;-68
2023/04/04 00:35:08;;;;;;;20.88;13.55;;;;;;;8.82;78.89;99140.41;7345731;19;20034;-68
2023/04/04 00:37:34;;;;;;;21.17;13.82;;;;;;;8.78;79.18;99138.94;7341831;19;20014;-68
2023/04/04 00:39:59;;;;;;;21.23;13.23;;;;;;;8.78;78.96;99128.31;7344881;19;20018;-70
2023/04/04 00:42:24;;;;;;;21.40;15.20;;;;;;;8.79;79.04;99126.50;7340737;19;20015;-71
2023/04/04 00:44:53;;;;;;;19.90;13.93;;;;;;;8.79;79.11;99126.50;7339701;19;20011;-71
2023/04/04 00:47:24;;;;;;;21.98;14.73;;;;;;;8.78;79.21;99122.16;7340465;19;20025;-72
2023/04/04 00:49:52;;;;;;;21.50;14.10;;;;;;;8.73;79.00;99120.66;7343893;19;20462;-70
2023/04/04 00:52:19;;;;;;;24.67;14.27;;;;;;;8.72;79.09;99123.41;7344793;19;20085;-69
2023/04/04 00:54:44;;;;;;;25.23;14.07;;;;;;;8.68;78.94;99114.84;7341528;19;20022;-70
2023/04/04 00:57:09;;;;;;;22.48;14.27;;;;;;;8.64;78.92;99115.16;7341597;19;20049;-71
2023/04/04 00:59:35;;;;;;;20.77;13.20;;;;;;;8.62;79.10;99122.38;7344298;19;20030;-70
2023/04/04 01:02:00;;;;;;;22.77;14.27;;;;;;;8.60;79.61;99124.31;7339732;19;20022;-70
2023/04/04 01:04:26;;;;;;;22.40;13.60;;;;;;;8.53;79.72;99117.75;7336445;19;20046;-68
2023/04/04 01:06:51;;;;;;;21.70;13.88;;;;;;;8.55;79.90;99121.13;7336085;19;20015;-68
2023/04/04 01:09:17;;;;;;;20.40;13.93;;;;;;;8.54;79.98;99124.75;7342259;19;20014;-69
2023/04/04 01:11:42;;;;;;;22.88;15.18;;;;;;;8.53;79.85;99126.56;7340446;19;20085;-69
2023/04/04 01:14:07;;;;;;;17.55;12.85;;;;;;;8.52;79.97;99127.50;7337367;19;20014;-70
2023/04/04 01:16:33;;;;;;;18.38;13.40;;;;;;;8.52;80.12;99127.50;7338137;19;20021;-69
2023/04/04 01:18:59;;;;;;;20.05;12.57;;;;;;;8.53;80.14;99120.41;7339005;19;20047;-69
2023/04/04 01:21:27;;;;;;;21.75;13.18;;;;;;;8.54;79.85;99130.91;7339363;19;20454;-67
2023/04/04 01:24:03;;;;;;;18.98;12.82;;;;;;;8.59;79.97;99126.09;7343159;19;20045;-68
2023/04/04 01:26:38;;;;;;;21.38;12.88;;;;;;;8.56;79.80;99134.31;7338863;19;20336;-67
2023/04/04 01:29:05;;;;;;;20.95;14.45;;;;;;;8.58;79.71;99126.22;7341421;19;20022;-69
2023/04/04 01:31:43;;;;;;;18.77;12.00;;;;;;;8.60;79.53;99121.63;7340906;19;20393;-74
2023/04/04 01:34:10;;;;;;;19.67;12.93;;;;;;;8.58;79.51;99123.56;7339823;19;20018;-70
2023/04/04 01:37:00;;;;;;;21.50;13.00;;;;;;;8.59;79.87;99115.47;7342404;19;20322;-69
2023/04/04 01:39:42;;;;;;;17.92;12.38;;;;;;;8.62;79.57;99127.69;7341953;19;20460;-70
2023/04/04 01:42:08;;;;;;;15.40;11.48;;;;;;;8.60;79.64;99118.97;7338222;19;20406;-71
2023/04/04 01:44:40;;;;;;;19.42;12.02;;;;;;;8.59;79.41;99114.63;7340710;19;20026;-71
2023/04/04 01:47:08;;;;;;;21.48;14.00;;;;;;;8.60;79.54;99117.19;7345259;19;20014;-71
2023/04/04 01:49:34;;;;;;;17.13;11.95;;;;;;;8.60;79.40;99119.84;7344457;19;20006;-68
2023/04/04 01:52:00;;;;;;;18.13;12.73;;;;;;;8.58;79.42;99128.88;7340942;19;20477;-72
2023/04/04 01:54:27;;;;;;;16.88;11.85;;;;;;;8.56;79.58;99114.88;7340061;19;20017;-69
2023/04/04 01:56:53;;;;;;;22.65;13.38;;;;;;;8.57;79.53;99117.44;7348177;19;20010;-67
2023/04/04 01:59:17;;;;;;;19.40;13.20;;;;;;;8.55;79.77;99113.16;7343745;19;20014;-68
2023/04/04 02:01:42;;;;;;;20.00;13.05;;;;;;;8.54;79.74;99120.28;7340595;19;20466;-70
2023/04/04 02:04:10;;;;;;;15.73;11.73;;;;;;;8.49;79.50;99114.44;7337708;19;20027;-68
2023/04/04 02:06:35;;;;;;;16.90;12.18;;;;;;;8.51;79.61;99125.81;7336024;19;20018;-69
2023/04/04 02:09:00;;;;;;;18.83;12.85;;;;;;;8.50;79.92;99117.94;7336566;19;20021;-69
2023/04/04 02:11:25;;;;;;;21.92;13.02;;;;;;;8.49;79.93;99119.75;7335654;19;20011;-69
2023/04/04 02:13:50;;;;;;;18.33;12.70;;;;;;;8.49;80.02;99116.25;7336439;19;20114;-65
2023/04/04 02:16:17;;;;;;;17.20;12.10;;;;;;;8.50;79.98;99125.91;7336291;19;20010;-68
2023/04/04 02:18:41;;;;;;;18.52;12.82;;;;;;;8.51;79.87;99119.66;7338680;19;20007;-69
2023/04/04 02:21:06;;;;;;;22.90;13.65;;;;;;;8.51;79.98;99117.00;7335931;19;20108;-72
2023/04/04 02:23:31;;;;;;;21.65;14.18;;;;;;;8.51;79.93;99115.19;7335645;19;20087;-70
2023/04/04 02:25:56;;;;;;;17.58;11.82;;;;;;;8.49;79.91;99111.78;7340040;19;20032;-71
2023/04/04 02:28:21;;;;;;;16.35;11.93;;;;;;;8.50;79.73;99110.81;7346076;19;20104;-68
2023/04/04 02:30:46;;;;;;;19.20;11.43;;;;;;;8.45;79.83;99110.31;7350999;19;20014;-79
2023/04/04 02:33:12;;;;;;;20.00;14.30;;;;;;;8.48;79.77;99110.09;7344781;19;20028;-68
2023/04/04 02:35:36;;;;;;;19.65;13.10;;;;;;;8.49;79.87;99116.25;7341428;19;20086;-64
2023/04/04 02:38:01;;;;;;;20.48;12.15;;;;;;;8.50;79.83;99112.63;7344191;19;20027;-64
2023/04/04 02:40:38;;;;;;;16.48;11.43;;;;;;;8.52;79.87;99110.72;7345334;19;20029;-63
2023/04/04 02:43:04;;;;;;;19.58;12.68;;;;;;;8.54;79.75;99114.13;7342567;19;20019;-65
2023/04/04 02:45:29;;;;;;;18.42;12.55;;;;;;;8.54;79.76;99109.66;7345139;19;20418;-62
2023/04/04 02:48:03;;;;;;;20.00;12.32;;;;;;;8.56;79.64;99106.91;7345330;19;20041;-63
2023/04/04 02:50:37;;;;;;;18.33;12.15;;;;;;;8.54;79.36;99109.66;7346364;19;20014;-64
2023/04/04 02:53:05;;;;;;;21.30;12.02;;;;;;;8.51;79.33;99112.53;7345005;19;20046;-64
2023/04/04 02:55:38;;;;;;;21.70;12.50;;;;;;;8.53;79.21;99107.97;7346733;19;20021;-65
2023/04/04 02:58:03;;;;;;;17.27;11.25;;;;;;;8.49;79.03;99110.94;7346409;19;20035;-63
2023/04/04 03:00:27;;;;;;;19.13;12.45;;;;;;;8.48;78.95;99112.75;7346163;19;20019;-63
2023/04/04 03:02:56;;;;;;;20.42;11.60;;;;;;;8.47;78.92;99111.03;7344873;19;20019;-65
2023/04/04 03:05:28;;;;;;;;;;;;;;;8.60;78.80;99116.31;7345942;19;20014;-64
2023/04/04 03:07:57;;;;;;;18.83;11.63;;;;;;;8.49;78.82;99110.94;7347041;19;19923;-66
2023/04/04 03:10:25;;;;;;;15.70;11.90;;;;;;;8.44;78.90;99108.63;7343495;19;20465;-64
2023/04/04 03:12:50;;;;;;;20.67;12.57;;;;;;;8.45;78.81;99112.97;7343543;19;20015;-65
2023/04/04 03:15:18;;;;;;;16.73;12.10;;;;;;;8.50;78.92;99123.25;7345388;19;20100;-65
2023/04/04 03:17:44;;;;;;;19.13;12.27;;;;;;;8.49;78.86;99111.78;7343056;19;20078;-65
2023/04/04 03:20:10;;;;;;;18.35;12.07;;;;;;;8.51;78.73;99115.19;7345164;19;20027;-68
2023/04/04 03:22:34;;;;;;;17.35;11.25;;;;;;;8.52;78.68;99114.22;7351907;19;20849;-66
2023/04/04 03:25:02;;;;;;;19.80;12.43;;;;;;;8.54;78.78;99117.63;7350211;19;20010;-69
2023/04/04 03:27:31;;;;;;;18.65;12.15;;;;;;;8.57;78.67;99124.53;7354343;19;20014;-68
2023/04/04 03:29:56;;;;;;;17.48;12.82;;;;;;;8.54;78.65;99114.97;7347266;19;20018;-68
2023/04/04 03:32:26;;;;;;;17.40;11.52;;;;;;;8.57;78.65;99119.22;7344762;19;20357;-69
2023/04/04 03:34:52;;;;;;;19.38;12.00;;;;;;;8.59;78.56;99120.78;7346660;19;20046;-68
2023/04/04 03:37:21;;;;;;;16.00;11.30;;;;;;;8.61;78.51;99121.53;7344581;19;20473;-72
2023/04/04 03:39:47;;;;;;;18.63;12.45;;;;;;;8.65;78.65;99122.19;7343407;19;20022;-70
2023/04/04 03:42:12;;;;;;;20.90;13.77;;;;;;;8.68;78.55;99124.63;7342884;19;20097;-71
2023/04/04 03:44:40;;;;;;;14.98;11.55;;;;;;;8.68;78.34;99117.50;7341739;19;20098;-73
2023/04/04 03:47:14;;;;;;;19.63;12.75;;;;;;;8.72;78.37;99132.25;7343126;19;20018;-71
2023/04/04 03:49:40;;;;;;;18.10;12.52;;;;;;;8.74;78.36;99121.50;7344988;19;20445;-69
2023/04/04 03:52:05;;;;;;;20.38;12.35;;;;;;;8.76;78.26;99124.06;7342445;19;20342;-68
2023/04/04 03:54:40;;;;;;;24.98;12.25;;;;;;;8.83;78.31;99126.16;7343303;19;20358;-67
2023/04/04 03:57:06;;;;;;;20.05;14.20;;;;;;;8.82;78.22;99124.44;7347316;19;20018;-66
2023/04/04 03:59:31;;;;;;;19.20;13.13;;;;;;;8.84;78.04;99125.19;7347794;19;20018;-71
2023/04/04 04:01:56;;;;;;;18.98;12.50;;;;;;;8.87;77.74;99122.31;7348249;19;20018;-68
2023/04/04 04:04:21;;;;;;;17.88;11.70;;;;;;;8.90;77.79;99118.59;7346590;19;20010;-66
2023/04/04 04:06:47;;;;;;;16.88;11.38;;;;;;;8.93;77.54;99121.00;7345495;19;20010;-67
2023/04/04 04:09:12;;;;;;;18.67;12.98;;;;;;;8.98;77.30;99125.03;7346836;19;20003;-66
2023/04/04 04:11:37;;;;;;;21.05;13.52;;;;;;;9.01;77.26;99124.84;7346697;19;20021;-67
2023/04/04 04:14:02;;;;;;;17.08;11.77;;;;;;;9.01;76.83;99130.16;7348917;19;20034;-67
2023/04/04 04:16:28;;;;;;;21.00;11.73;;;;;;;9.00;76.67;99116.97;7344740;19;20077;-68
2023/04/04 04:18:53;;;;;;;17.38;11.63;;;;;;;9.01;76.72;99116.84;7344853;19;20010;-69
2023/04/04 04:21:30;;;;;;;21.15;12.18;;;;;;;9.00;76.56;99123.13;7341948;19;20019;-67
2023/04/04 04:23:55;;;;;;;16.42;11.77;;;;;;;9.03;76.64;99122.88;7340935;19;20014;-68
2023/04/04 04:26:20;;;;;;;21.17;12.80;;;;;;;9.08;76.34;99123.41;7343278;19;20433;-70
2023/04/04 04:28:47;;;;;;;18.10;11.07;;;;;;;9.18;76.30;99130.69;7341227;19;20478;-69
2023/04/04 04:31:15;;;;;;;18.65;11.48;;;;;;;9.22;75.87;99127.72;7340983;19;20015;-67
2023/04/04 04:33:50;;;;;;;17.95;12.07;;;;;;;9.29;75.86;99133.41;7340994;19;20036;-68
2023/04/04 04:36:19;;;;;;;18.85;11.48;;;;;;;9.35;75.81;99123.19;7340147;19;20021;-70
2023/04/04 04:38:53;;;;;;;;;;;;;;;9.58;75.73;99128.59;7344835;19;20026;-69
2023/04/04 04:41:18;;;;;;;18.55;10.60;;;;;;;9.46;75.12;99130.34;7342806;19;19954;-68
2023/04/04 04:43:47;;;;;;;20.40;12.73;;;;;;;9.48;75.04;99131.06;7345553;19;20710;-72
2023/04/04 04:46:13;;;;;;;16.65;12.00;;;;;;;9.47;74.68;99129.41;7344757;19;20086;-72
2023/04/04 04:48:39;;;;;;;19.08;12.43;;;;;;;9.55;74.94;99137.66;7340269;19;20014;-72
2023/04/04 04:51:05;;;;;;;18.95;12.63;;;;;;;9.66;74.67;99129.69;7340614;19;20431;-72
2023/04/04 04:53:38;;;;;;;15.57;12.10;;;;;;;9.82;74.51;99127.53;7340357;19;20015;-71
2023/04/04 04:58:43;;;;;;;21.23;12.85;;;;;;;10.11;73.54;99130.66;7340725;19;20101;-71
2023/04/04 05:01:08;;;;;;;19.63;11.75;;;;;;;10.25;73.34;99123.44;7340353;19;20099;-71
2023/04/04 05:03:36;;;;;;;20.60;11.43;;;;;;;10.31;72.87;99121.13;7339686;19;20342;-70
2023/04/04 05:06:06;;;;;;;17.17;12.35;;;;;;;10.34;72.62;99112.91;7340403;19;20025;-72
2023/04/04 05:08:33;;;;;;;20.05;11.45;;;;;;;10.41;72.45;99113.25;7346836;19;20065;-69
2023/04/04 05:11:14;;;;;;;18.85;11.68;;;;;;;10.46;72.33;99105.75;7340531;19;20049;-69
2023/04/04 05:13:41;;;;;;;20.58;12.85;;;;;;;10.48;72.26;99107.31;7339589;19;20049;-68
2023/04/04 05:16:07;;;;;;;18.38;11.65;;;;;;;10.60;72.01;99112.66;7341478;19;20014;-68
2023/04/04 05:18:35;;;;;;;20.48;11.90;;;;;;;10.75;71.67;99106.91;7340341;19;20021;-68
2023/04/04 05:21:05;;;;;;;18.08;11.75;;;;;;;10.99;71.05;99108.56;7340392;19;20022;-68
2023/04/04 05:23:33;;;;;;;17.70;12.25;;;;;;;11.21;70.21;99104.00;7341904;19;20458;-67
2023/04/04 05:25:58;;;;;;;28.58;12.88;;;;;;;11.46;69.66;99109.97;7337996;19;20014;-67
2023/04/04 05:28:30;;;;;;;17.48;12.18;;;;;;;11.62;68.67;99111.22;7341166;19;20493;-67
2023/04/04 05:31:02;;;;;;;19.70;12.25;;;;;;;11.77;68.16;99110.94;7339494;19;20155;-70
2023/04/04 05:33:32;;;;;;;17.13;11.25;;;;;;;11.89;67.54;99109.91;7339734;19;20053;-71
2023/04/04 05:36:07;;;;;;;26.25;11.73;;;;;;;12.13;66.59;99106.94;7339147;19;20018;-69
2023/04/04 05:38:39;;;;;;;17.55;10.95;;;;;;;12.40;65.98;99111.75;7340848;19;20373;-73
2023/04/04 05:41:06;;;;;;;23.55;11.90;;;;;;;12.80;64.92;99106.38;7342036;19;20374;-72
2023/04/04 05:43:32;;;;;;;17.15;11.30;;;;;;;13.45;63.67;99114.69;7341895;19;20465;-72
2023/04/04 05:46:05;;;;;;;15.40;10.80;;;;;;;14.00;62.08;99111.38;7340298;19;20106;-72
2023/04/04 05:48:37;;;;;;;14.20;10.35;;;;;;;14.38;60.49;99097.88;7339739;19;20023;-71
2023/04/04 05:51:02;;;;;;;22.77;11.90;;;;;;;14.59;59.34;99102.19;7340508;19;20040;-71
2023/04/04 05:53:37;;;;;;;16.83;10.38;;;;;;;14.94;58.80;99102.28;7338383;19;20010;-72
2023/04/04 05:56:03;;;;;;;21.55;11.35;;;;;;;15.35;57.76;99103.56;7338880;19;20011;-73
2023/04/04 05:58:30;;;;;;;17.23;10.55;;;;;;;15.70;56.09;99099.22;7343821;19;20023;-72
2023/04/04 06:01:02;;;;;;;17.15;12.18;;;;;;;15.58;55.69;99096.75;7350388;19;20358;-72
2023/04/04 06:03:28;;;;;;;20.98;11.40;;;;;;;15.37;55.82;99090.81;7349139;19;20070;-72
2023/04/04 06:05:57;;;;;;;18.20;10.20;;;;;;;15.08;56.07;99100.94;7345273;19;20010;-72
2023/04/04 06:08:24;;;;;;;16.00;10.55;;;;;;;15.12;56.38;99094.28;7361065;19;20026;-73
2023/04/04 06:13:21;;;;;;;14.45;10.45;;;;;;;15.58;55.25;99094.06;7352244;19;20458;-73
2023/04/04 06:15:51;;;;;;;17.67;11.40;;;;;;;16.00;54.15;99089.88;7347633;19;20014;-69
2023/04/04 06:23:28;;;;;;;15.73;11.05;;;;;;;19.93;47.09;99089.13;7348163;19;20359;-70
2023/04/04 06:25:53;;;;;;;15.43;9.98;;;;;;;21.18;43.64;99089.25;7351251;19;20025;-69
2023/04/04 06:28:21;;;;;;;16.15;10.50;;;;;;;22.56;41.11;99087.84;7349506;19;20023;-71
2023/04/04 06:30:50;;;;;;;15.73;10.68;;;;;;;23.27;39.24;99088.41;7348312;19;20340;-70
2023/04/04 06:35:56;;;;;;;12.98;9.88;;;;;;;23.85;37.30;99095.03;7347418;19;20015;-69
2023/04/04 06:38:22;;;;;;;13.57;10.45;;;;;;;23.77;36.62;99091.69;7350440;19;20015;-69
2023/04/04 06:40:49;;;;;;;14.95;11.35;;;;;;;23.92;36.74;99095.06;7349447;19;20010;-70
2023/04/04 06:43:15;;;;;;;17.02;10.73;;;;;;;23.65;36.81;99101.50;7345329;19;20021;-69
2023/04/04 06:45:46;;;;;;;15.90;10.80;;;;;;;22.41;38.13;99098.81;7341488;19;20348;-69
2023/04/04 06:48:11;;;;;;;16.20;10.60;;;;;;;20.90;40.03;99091.81;7343994;19;20010;-69
2023/04/04 06:50:37;;;;;;;16.98;11.05;;;;;;;19.54;42.49;99100.09;7343619;19;20378;-69
2023/04/04 06:53:06;;;;;;;15.85;11.18;;;;;;;18.46;44.35;99103.59;7346539;19;20026;-70
2023/04/04 06:55:32;;;;;;;17.25;11.10;;;;;;;17.65;46.21;99114.47;7345622;19;20014;-70
2023/04/04 06:57:59;;;;;;;18.95;11.48;;;;;;;17.10;47.47;99098.00;7345368;19;20018;-71
2023/04/04 07:00:25;;;;;;;18.58;11.25;;;;;;;16.53;48.49;99103.13;7344730;19;20015;-70
2023/04/04 07:03:00;;;;;;;18.67;11.07;;;;;;;16.14;49.55;99106.25;7346604;19;20015;-70
2023/04/04 07:05:28;;;;;;;18.48;10.95;;;;;;;15.54;49.78;99111.53;7344980;19;20038;-70
2023/04/04 07:07:55;;;;;;;14.70;10.77;;;;;;;15.04;51.16;99115.66;7346767;19;20010;-69
2023/04/04 07:10:20;;;;;;;18.85;11.18;;;;;;;14.79;51.43;99117.19;7344876;19;20019;-69
2023/04/04 07:12:47;;;;;;;19.30;11.13;;;;;;;14.49;52.37;99115.66;7348006;19;20090;-67
2023/04/04 07:15:12;;;;;;;19.45;11.88;;;;;;;14.29;52.41;99108.63;7348021;19;20517;-68
2023/04/04 07:17:38;;;;;;;16.73;11.05;;;;;;;14.26;53.00;99120.50;7348574;19;20487;-68
2023/04/04 07:20:02;;;;;;;18.45;11.25;;;;;;;14.50;52.77;99114.66;7352230;19;20014;-69
2023/04/04 07:22:29;;;;;;;22.10;11.63;;;;;;;14.76;52.25;99120.19;7350985;19;20016;-69
2023/04/04 07:24:57;;;;;;;17.90;11.27;;;;;;;14.80;51.97;99127.78;7348734;19;20015;-69
2023/04/04 07:27:24;;;;;;;19.48;11.40;;;;;;;14.85;51.78;99116.63;7345726;19;20010;-69
2023/04/04 07:29:51;;;;;;;18.85;11.45;;;;;;;14.53;52.14;99112.53;7347108;19;20058;-68
2023/04/04 07:32:18;;;;;;;18.88;10.73;;;;;;;14.29;52.67;99124.72;7351665;19;20082;-69
2023/04/04 07:34:44;;;;;;;18.17;10.48;;;;;;;14.17;53.00;99119.53;7348714;19;20415;-68
2023/04/04 07:37:08;;;;;;;17.27;11.18;;;;;;;14.10;53.04;99126.47;7350898;19;20037;-67
2023/04/04 07:39:34;;;;;;;20.48;10.52;;;;;;;14.01;52.86;99121.13;7347746;19;20022;-67
2023/04/04 07:42:02;;;;;;;25.67;11.60;;;;;;;13.95;52.98;99119.88;7347842;19;20018;-67
2023/04/04 07:44:27;;;;;;;21.13;11.55;;;;;;;14.01;53.02;99119.28;7346602;19;20026;-68
2023/04/04 07:47:00;;;;;;;19.52;9.57;;;;;;;14.24;52.87;99114.44;7347421;19;20061;-68
2023/04/04 07:49:27;;;;;;;17.92;10.93;;;;;;;14.45;52.36;99114.25;7347090;19;20563;-66
2023/04/04 07:51:55;;;;;;;16.25;9.70;;;;;;;14.63;52.23;99125.91;7346194;19;20010;-67
2023/04/04 07:54:22;;;;;;;16.70;10.25;;;;;;;14.73;52.33;99117.81;7351410;19;20074;-68
2023/04/04 07:56:50;;;;;;;23.73;11.13;;;;;;;14.92;52.30;99123.06;7343001;19;20006;-68
2023/04/04 07:59:16;;;;;;;14.43;11.48;;;;;;;15.26;51.35;99120.59;7344033;19;20018;-67
2023/04/04 08:01:42;;;;;;;18.67;10.63;;;;;;;15.87;50.37;99106.41;7343759;19;20370;-67
2023/04/04 08:04:07;;;;;;;15.98;11.23;;;;;;;16.42;48.82;99114.19;7343205;19;20358;-67
2023/04/04 08:06:33;;;;;;;23.95;11.35;;;;;;;16.69;48.24;99104.09;7344217;19;20040;-68
2023/04/04 08:09:02;;;;;;;25.48;11.63;;;;;;;17.06;47.75;99109.09;7341970;19;20110;-67
2023/04/04 08:11:29;;;;;;;17.25;11.93;;;;;;;17.49;46.78;99115.28;7342432;19;20007;-70
2023/04/04 08:13:55;;;;;;;27.27;12.25;;;;;;;17.91;45.98;99108.91;7344433;19;20042;-69
2023/04/04 08:16:22;;;;;;;18.48;11.30;;;;;;;18.42;45.05;99100.41;7344548;19;20018;-71
2023/04/04 08:18:53;;;;;;;24.38;10.90;;;;;;;19.37;44.18;99105.75;7348568;19;20020;-69
2023/04/04 08:21:19;;;;;;;19.85;12.25;;;;;;;20.61;41.57;99098.97;7345656;19;20037;-70
2023/04/04 08:23:46;;;;;;;20.42;10.57;;;;;;;22.19;38.36;99099.91;7343318;19;20011;-69
2023/04/04 08:26:11;;;;;;;20.73;11.48;;;;;;;23.59;36.29;99102.34;7341923;19;20037;-70
2023/04/04 08:28:37;;;;;;;27.67;12.25;;;;;;;24.20;34.34;99106.56;7344169;19;20029;-69
2023/04/04 08:31:07;;;;;;;24.13;11.68;;;;;;;24.29;34.11;99098.22;7348568;19;20021;-70
2023/04/04 08:33:31;;;;;;;20.13;12.20;;;;;;;23.87;34.94;99095.69;7351653;19;20050;-70
2023/04/04 08:36:00;;;;;;;16.65;11.93;;;;;;;23.15;35.92;99109.06;7352091;19;20014;-70
2023/04/04 08:38:27;;;;;;;22.42;11.75;;;;;;;22.28;36.30;99108.75;7349545;19;20007;-70
2023/04/04 08:40:52;;;;;;;19.42;10.85;;;;;;;21.62;37.18;99106.25;7357603;19;20011;-72
2023/04/04 08:43:26;;;;;;;17.30;10.15;;;;;;;21.33;37.61;99109.09;7350184;19;20002;-70
2023/04/04 08:45:54;;;;;;;13.88;10.85;;;;;;;21.34;37.87;99100.72;7344012;19;20014;-72
2023/04/04 08:48:25;;;;;;;23.40;12.32;;;;;;;21.31;38.92;99103.84;7342134;19;20022;-73
2023/04/04 08:50:56;;;;;;;27.45;11.85;;;;;;;20.91;39.16;99104.34;7343191;19;20335;-72
2023/04/04 08:53:28;;;;;;;20.58;12.13;;;;;;;20.56;38.78;99100.53;7347646;19;20018;-71
2023/04/04 08:55:58;;;;;;;24.30;13.93;;;;;;;19.98;39.70;99110.22;7342769;19;20026;-72
2023/04/04 08:58:23;;;;;;;20.83;12.35;;;;;;;19.67;40.59;99110.31;7345319;19;20011;-73
2023/04/04 09:00:47;;;;;;;25.98;11.82;;;;;;;19.43;40.86;99113.97;7343668;19;20040;-72
2023/04/04 09:03:28;;;;;;;17.98;12.15;;;;;;;19.41;41.67;99120.63;7343744;19;20007;-74
2023/04/04 09:05:56;;;;;;;21.73;13.67;;;;;;;19.06;41.41;99112.03;7341856;19;20133;-73
2023/04/04 09:08:25;;;;;;;18.02;11.82;;;;;;;18.83;41.78;99116.53;7342861;19;20037;-72
2023/04/04 09:10:55;;;;;;;24.63;11.63;;;;;;;18.58;42.80;99123.00;7340280;19;20032;-72
2023/04/04 09:13:21;;;;;;;19.80;12.45;;;;;;;18.29;43.34;99118.13;7340130;19;20018;-72
2023/04/04 09:15:53;;;;;;;22.88;11.15;;;;;;;17.96;44.23;99123.56;7343282;19;20334;-71
2023/04/04 09:18:18;;;;;;;48.42;15.15;;;;;;;17.67;44.50;99118.69;7341261;19;20029;-71
2023/04/04 09:20:45;;;;;;;20.63;12.05;;;;;;;17.47;44.89;99127.22;7344068;19;20014;-71
2023/04/04 09:23:12;;;;;;;19.90;12.80;;;;;;;17.37;45.30;99124.69;7356128;19;20014;-71
2023/04/04 09:25:49;;;;;;;21.52;11.50;;;;;;;17.41;44.90;99128.72;7349302;19;20022;-71
2023/04/04 09:28:15;;;;;;;29.05;12.05;;;;;;;17.29;45.27;99136.28;7347913;19;20346;-72
2023/04/04 09:30:40;;;;;;;18.67;11.18;;;;;;;17.25;45.05;99129.53;7343868;19;20011;-73
2023/04/04 09:33:09;;;;;;;20.95;11.77;;;;;;;17.31;45.04;99133.41;7343114;19;20014;-73
2023/04/04 09:35:36;;;;;;;28.60;12.20;;;;;;;17.34;44.74;99131.25;7343339;19;20015;-72
2023/04/04 09:38:01;;;;;;;18.13;9.48;;;;;;;17.42;43.62;99125.03;7350686;19;20045;-72
2023/04/04 09:40:28;;;;;;;20.30;9.88;;;;;;;17.49;42.92;99131.44;7349508;19;20014;-71
2023/04/04 09:42:59;;;;;;;19.25;9.30;;;;;;;17.61;42.46;99130.09;7346553;19;20046;-72
2023/04/04 09:45:28;;;;;;;18.42;8.23;;;;;;;17.84;41.95;99119.53;7344703;19;20010;-72
2023/04/04 09:47:55;;;;;;;18.42;9.25;;;;;;;18.30;40.85;99125.22;7347035;19;20010;-73
2023/04/04 09:50:24;;;;;;;13.32;6.95;;;;;;;18.63;39.81;99126.84;7351364;19;20140;-72
2023/04/04 09:52:50;;;;;;;10.18;5.53;;;;;;;18.78;39.26;99132.38;7346267;19;20042;-72
2023/04/04 09:55:16;;;;;;;11.93;6.47;;;;;;;19.31;39.59;99125.38;7347729;19;20497;-72
2023/04/04 09:57:45;;;;;;;16.38;6.80;;;;;;;20.41;37.66;99129.50;7348215;19;20042;-72
2023/04/04 10:00:11;;;;;;;14.95;7.18;;;;;;;21.52;35.64;99130.16;7350454;19;20029;-72
2023/04/04 10:02:40;;;;;;;16.77;6.80;;;;;;;22.14;34.56;99128.66;7347626;19;20356;-72
2023/04/04 10:05:10;;;;;;;18.65;7.40;;;;;;;21.93;34.65;99127.63;7345029;19;20019;-71
2023/04/04 10:07:43;;;;;;;13.32;7.20;;;;;;;21.19;35.35;99127.06;7348117;19;20098;-71
2023/04/04 10:10:09;;;;;;;24.88;7.75;;;;;;;20.45;36.53;99126.22;7351240;19;20023;-71
2023/04/04 10:12:36;;;;;;;21.98;7.97;;;;;;;19.89;37.07;99141.91;7345817;19;20026;-71
2023/04/04 10:15:02;;;;;;;13.07;6.72;;;;;;;19.36;38.10;99139.22;7347722;19;20090;-72
2023/04/04 10:17:39;;;;;;;14.48;7.53;;;;;;;19.12;38.84;99138.31;7350216;19;20055;-71
2023/04/04 10:20:08;;;;;;;17.05;7.18;;;;;;;18.63;39.39;99131.41;7349699;19;20018;-72
2023/04/04 10:22:35;;;;;;;16.20;7.57;;;;;;;18.32;39.96;99134.00;7348441;19;20032;-71
2023/04/04 10:25:00;;;;;;;17.15;7.43;;;;;;;18.02;40.21;99130.16;7350756;19;20063;-71
2023/04/04 10:27:25;;;;;;;10.52;7.75;;;;;;;17.79;40.74;99138.06;7355552;19;20026;-71
2023/04/04 10:29:51;;;;;;;15.98;7.72;;;;;;;17.70;41.01;99141.78;7352042;19;20493;-71
2023/04/04 10:32:46;;;;;;;14.48;6.82;;;;;;;17.83;41.13;99134.03;7350619;19;20018;-70
2023/04/04 10:35:14;;;;;;;17.00;8.02;;;;;;;17.83;40.99;99144.84;7346043;19;20014;-68
2023/04/04 10:37:44;;;;;;;11.38;6.07;;;;;;;17.78;40.81;99147.19;7345343;19;20026;-70
2023/04/04 10:40:15;;;;;;;10.48;6.07;;;;;;;17.65;40.65;99149.50;7345848;19;20087;-68
2023/04/04 10:42:43;;;;;;;11.13;6.53;;;;;;;17.37;40.68;99151.63;7344135;19;20053;-69
2023/04/04 10:45:11;;;;;;;17.67;6.68;;;;;;;16.85;41.48;99151.78;7348372;19;20058;-69
2023/04/04 10:47:38;;;;;;;13.98;6.97;;;;;;;16.65;42.14;99150.34;7346328;19;20010;-68
2023/04/04 10:50:09;;;;;;;13.70;7.63;;;;;;;16.45;42.29;99156.91;7348325;19;20010;-67
2023/04/04 10:52:35;;;;;;;16.48;9.02;;;;;;;16.19;43.11;99162.28;7343502;19;20015;-70
2023/04/04 10:55:05;;;;;;;10.82;7.13;;;;;;;16.22;43.29;99157.44;7345465;19;20038;-68
2023/04/04 10:57:32;;;;;;;24.98;8.10;;;;;;;16.30;43.11;99152.09;7345670;19;20014;-68
2023/04/04 11:00:11;;;;;;;16.53;8.23;;;;;;;16.46;43.09;99147.84;7345067;19;20081;-68
2023/04/04 11:03:01;;;;;;;17.73;8.15;;;;;;;16.61;43.28;99146.22;7346985;19;20026;-68
2023/04/04 11:05:40;;;;;;;15.05;7.68;;;;;;;16.52;42.95;99150.72;7345693;19;20025;-69
2023/04/04 11:08:08;;;;;;;15.70;7.57;;;;;;;16.41;43.19;99144.78;7342328;19;20685;-69
2023/04/04 11:10:36;;;;;;;15.82;8.25;;;;;;;16.33;43.16;99150.97;7345775;19;20529;-68
2023/04/04 11:13:07;;;;;;;14.18;7.68;;;;;;;16.11;43.50;99141.56;7349753;19;20019;-69
2023/04/04 11:16:09;;;;;;;16.55;8.43;;;;;;;16.06;43.81;99145.69;7344931;19;20007;-68
2023/04/04 11:18:40;;;;;;;20.45;8.85;;;;;;;15.82;44.28;99147.19;7344966;19;20042;-69
2023/04/04 11:21:30;;;;;;;22.13;8.80;;;;;;;15.81;44.64;99141.97;7347578;19;20018;-66
2023/04/04 11:23:59;;;;;;;16.38;8.25;;;;;;;15.51;44.91;99149.41;7345099;19;20038;-68
2023/04/04 11:26:29;;;;;;;20.70;8.95;;;;;;;15.32;45.27;99149.53;7343214;19;20017;-69
2023/04/04 11:28:58;;;;;;;20.67;8.52;;;;;;;15.31;45.41;99153.22;7345044;19;20022;-68
2023/04/04 11:31:27;;;;;;;24.85;8.73;;;;;;;15.25;45.49;99148.44;7345269;19;20014;-68
2023/04/04 11:34:04;;;;;;;21.30;8.38;;;;;;;15.17;46.08;99156.41;7344685;19;20014;-68
2023/04/04 11:36:36;;;;;;;19.30;8.70;;;;;;;15.07;46.15;99156.47;7350453;19;20019;-67
2023/04/04 11:39:26;;;;;;;21.70;8.27;;;;;;;15.16;46.32;99150.19;7348666;19;20030;-68